Time;durP1;ratioP1;P1;durP2;ratioP2;P2;SDS_P1;SDS_P2;PMS_P1;PMS_P2;Temp;Humidity;BMP_temperature;BMP_pressure;BME280_temperature;BME280_humidity;BME280_pressure;Samples;Min_cycle;Max_cycle;Signal;HPM_P1;HPM_P2
2021/05/18 00:00:14;;;;;;;4.97;2.25;;;10.10;97.40;;;;;;5018182;28;20120;-83
2021/05/18 00:02:40;;;;;;;4.65;2.25;;;10.10;97.40;;;;;;5034686;28;20021;-83
2021/05/18 00:05:10;;;;;;;4.90;2.05;;;10.00;97.40;;;;;;5034109;28;20482;-83
2021/05/18 00:07:37;;;;;;;5.18;2.30;;;10.00;97.40;;;;;;5034448;28;20368;-83
2021/05/18 00:12:50;;;;;;;6.60;2.28;;;9.90;97.40;;;;;;5051605;28;20083;-84
2021/05/18 00:15:19;;;;;;;6.70;1.95;;;9.90;97.40;;;;;;5017685;28;20033;-83
2021/05/18 00:17:45;;;;;;;3.53;2.20;;;9.80;97.30;;;;;;5051292;28;20029;-82
2021/05/18 00:20:14;;;;;;;4.57;2.30;;;9.80;97.30;;;;;;5033543;28;20082;-83
2021/05/18 00:22:40;;;;;;;5.00;2.28;;;9.80;97.30;;;;;;5033647;28;20071;-82
2021/05/18 00:25:07;;;;;;;6.57;2.90;;;9.70;97.20;;;;;;5032662;28;20033;-82
2021/05/18 00:27:34;;;;;;;11.38;2.80;;;9.70;97.20;;;;;;5016323;28;20040;-82
2021/05/18 00:30:00;;;;;;;10.93;3.08;;;9.60;97.20;;;;;;5032735;28;20075;-83
2021/05/18 00:32:26;;;;;;;6.28;2.65;;;9.70;97.30;;;;;;5033278;28;20390;-82
2021/05/18 00:34:55;;;;;;;4.05;2.20;;;9.60;97.30;;;;;;5016477;28;20119;-84
2021/05/18 00:37:22;;;;;;;8.32;3.03;;;9.60;97.30;;;;;;5016770;28;20055;-83
2021/05/18 00:39:48;;;;;;;5.22;2.50;;;9.60;97.30;;;;;;5032665;28;20033;-84
2021/05/18 00:42:20;;;;;;;6.30;2.90;;;9.60;97.40;;;;;;5015437;28;20054;-83
2021/05/18 00:44:46;;;;;;;4.68;2.30;;;9.60;97.30;;;;;;5032530;28;20029;-85
2021/05/18 00:47:12;;;;;;;5.80;1.90;;;9.50;97.30;;;;;;5031805;28;20395;-83
2021/05/18 00:49:38;;;;;;;6.88;2.30;;;9.50;97.30;;;;;;5015947;28;20050;-83
2021/05/18 00:52:07;;;;;;;5.82;2.25;;;9.50;97.20;;;;;;5031690;28;20392;-81
2021/05/18 00:54:43;;;;;;;5.47;2.50;;;9.50;97.20;;;;;;5015742;28;20032;-82
2021/05/18 00:59:54;;;;;;;4.15;2.00;;;9.50;97.20;;;;;;5035080;28;20056;-83
2021/05/18 01:02:24;;;;;;;3.53;1.88;;;9.40;97.20;;;;;;5015046;28;20090;-85
2021/05/18 01:04:56;;;;;;;7.20;1.80;;;9.40;97.30;;;;;;5049148;28;20028;-82
2021/05/18 01:07:22;;;;;;;5.22;1.80;;;9.40;97.30;;;;;;5049411;28;20025;-84
2021/05/18 01:09:48;;;;;;;6.85;2.63;;;9.40;97.20;;;;;;5031158;28;20372;-81
2021/05/18 01:12:14;;;;;;;5.50;2.03;;;9.40;97.20;;;;;;5049547;28;20052;-84
2021/05/18 01:14:40;;;;;;;3.63;1.90;;;9.40;97.30;;;;;;5015116;28;20025;-84
2021/05/18 01:17:06;;;;;;;4.93;1.92;;;9.40;97.30;;;;;;5014837;28;20496;-83
2021/05/18 01:19:32;;;;;;;5.72;2.00;;;9.40;97.30;;;;;;4998905;28;20478;-84
2021/05/18 01:22:00;;;;;;;3.80;2.00;;;9.40;97.30;;;;;;5014523;28;20383;-83
2021/05/18 01:24:26;;;;;;;4.00;1.92;;;9.30;97.30;;;;;;5030745;28;20033;-84
2021/05/18 01:26:52;;;;;;;3.75;1.88;;;9.30;97.20;;;;;;5014457;28;20379;-85
2021/05/18 01:29:21;;;;;;;5.68;1.83;;;9.30;97.20;;;;;;5031001;28;20505;-82
2021/05/18 01:31:48;;;;;;;;;;;9.30;97.20;;;;;;5031516;28;20031;-83
2021/05/18 01:34:14;;;;;;;4.97;1.83;;;9.30;97.20;;;;;;5030843;28;19927;-84
2021/05/18 01:36:40;;;;;;;2.60;1.70;;;9.30;97.00;;;;;;5014372;28;20025;-83
2021/05/18 01:44:27;;;;;;;4.97;1.75;;;9.10;97.10;;;;;;5033859;28;20041;-83
2021/05/18 01:46:53;;;;;;;3.25;1.45;;;9.10;97.10;;;;;;5014826;28;20459;-83
2021/05/18 01:49:19;;;;;;;6.38;1.67;;;9.10;97.20;;;;;;5030665;28;20020;-83
2021/05/18 01:51:51;;;;;;;4.90;1.90;;;9.10;97.20;;;;;;5014647;28;20097;-82
2021/05/18 01:54:22;;;;;;;5.57;1.70;;;9.10;97.20;;;;;;5030455;28;20383;-82
2021/05/18 01:57:16;;;;;;;5.05;1.88;;;9.00;97.20;;;;;;5030792;28;20036;-83
2021/05/18 01:59:40;;;;;;;7.32;1.80;;;9.00;97.20;;;;;;5034146;28;20036;-82
2021/05/18 02:02:06;;;;;;;3.88;1.55;;;9.00;97.20;;;;;;5014160;28;20021;-82
2021/05/18 02:04:40;;;;;;;6.72;1.88;;;8.90;97.30;;;;;;5030284;28;20029;-82
2021/05/18 02:07:15;;;;;;;6.60;1.73;;;8.90;97.30;;;;;;5030487;28;20447;-84
2021/05/18 02:09:42;;;;;;;3.55;1.48;;;8.90;97.30;;;;;;5030973;28;20025;-83
2021/05/18 02:12:09;;;;;;;3.78;1.52;;;8.90;97.30;;;;;;5030704;28;20484;-84
2021/05/18 02:14:35;;;;;;;7.18;1.85;;;8.90;97.30;;;;;;5048365;28;20029;-83
2021/05/18 02:17:28;;;;;;;4.60;1.73;;;8.90;97.40;;;;;;5030257;28;20036;-83
2021/05/18 02:25:21;;;;;;;4.13;1.80;;;8.90;97.30;;;;;;5048240;28;20486;-84
2021/05/18 02:27:48;;;;;;;4.05;1.85;;;8.80;97.30;;;;;;5047964;28;20079;-82
2021/05/18 02:30:15;;;;;;;3.65;1.80;;;8.80;97.30;;;;;;5014380;28;20029;-82
2021/05/18 02:32:41;;;;;;;3.13;1.58;;;8.80;97.30;;;;;;5030113;28;20454;-83
2021/05/18 02:35:09;;;;;;;2.95;1.58;;;8.80;97.30;;;;;;5030150;28;20078;-81
2021/05/18 02:37:37;;;;;;;4.18;1.98;;;8.80;97.30;;;;;;5030577;28;20223;-82
2021/05/18 02:40:06;;;;;;;4.10;1.90;;;8.70;97.40;;;;;;5014111;28;20426;-83
2021/05/18 02:42:31;;;;;;;2.95;1.67;;;8.70;97.40;;;;;;5029633;28;20518;-83
2021/05/18 02:45:28;;;;;;;3.10;1.70;;;8.70;97.50;;;;;;5029755;28;20120;-82
2021/05/18 02:50:27;;;;;;;6.45;2.28;;;8.70;97.60;;;;;;5048232;28;20059;-83
2021/05/18 02:52:53;;;;;;;8.77;1.95;;;8.80;97.70;;;;;;5029666;28;20052;-83
2021/05/18 02:55:29;;;;;;;7.35;1.70;;;8.80;97.70;;;;;;5029887;28;20461;-82
2021/05/18 02:57:56;;;;;;;3.90;1.80;;;8.80;97.70;;;;;;5047747;28;20497;-83
2021/05/18 03:00:24;;;;;;;5.93;1.92;;;8.80;97.80;;;;;;5013551;28;20500;-83
2021/05/18 03:02:51;;;;;;;6.60;1.63;;;8.80;97.80;;;;;;5030132;28;20040;-83
2021/05/18 03:05:18;;;;;;;3.00;1.58;;;8.80;97.80;;;;;;5015819;28;20400;-84
2021/05/18 03:07:44;;;;;;;4.82;1.90;;;8.80;97.70;;;;;;5033438;28;20027;-84
2021/05/18 03:10:11;;;;;;;3.80;1.73;;;8.80;97.70;;;;;;5017407;28;20033;-82
2021/05/18 03:12:37;;;;;;;4.03;1.65;;;8.80;97.90;;;;;;5051895;28;20037;-85
2021/05/18 03:15:04;;;;;;;5.13;1.80;;;8.80;97.70;;;;;;5017654;28;20040;-83
2021/05/18 03:17:31;;;;;;;10.55;1.85;;;8.70;97.70;;;;;;5017653;28;20067;-82
2021/05/18 03:19:57;;;;;;;5.03;1.63;;;8.70;97.80;;;;;;5035231;28;20107;-82
2021/05/18 03:22:22;;;;;;;4.25;1.85;;;8.70;97.80;;;;;;5018180;28;20483;-83
2021/05/18 03:24:48;;;;;;;2.67;1.73;;;8.60;97.80;;;;;;5033346;28;20475;-83
2021/05/18 03:27:14;;;;;;;4.00;2.13;;;8.60;97.80;;;;;;5033325;28;20055;-85
2021/05/18 03:29:42;;;;;;;4.57;2.03;;;8.60;97.80;;;;;;5016910;28;20035;-83
2021/05/18 03:34:52;;;;;;;4.97;1.98;;;8.50;97.90;;;;;;5036292;28;20056;-83
2021/05/18 03:37:27;;;;;;;6.03;2.30;;;8.50;97.90;;;;;;5016949;28;20483;-82
2021/05/18 03:39:58;;;;;;;4.40;1.98;;;8.50;97.90;;;;;;5033251;28;20055;-82
2021/05/18 03:42:32;;;;;;;9.15;2.30;;;8.50;98.00;;;;;;5017222;28;20061;-83
2021/05/18 03:53:31;;;;;;;3.95;2.15;;;8.40;98.00;;;;;;5050901;28;20052;-84
2021/05/18 04:04:23;;;;;;;4.25;2.28;;;8.30;98.10;;;;;;5050392;28;20395;-85
2021/05/18 04:26:21;;;;;;;9.27;3.22;;;8.30;98.30;;;;;;5032321;28;20029;-83
2021/05/18 05:00:44;;;;;;;5.43;1.85;;;9.00;98.20;;;;;;5049885;28;20090;-82
2021/05/18 05:08:29;;;;;;;6.20;2.35;;;9.30;98.30;;;;;;5034402;28;20043;-82
2021/05/18 05:16:05;;;;;;;4.47;2.25;;;9.70;98.10;;;;;;5034333;28;20107;-85
2021/05/18 05:18:31;;;;;;;6.38;2.00;;;9.80;97.90;;;;;;5031447;28;20112;-84
2021/05/18 05:20:56;;;;;;;5.22;1.83;;;9.90;97.90;;;;;;5015148;28;20029;-84
2021/05/18 05:23:22;;;;;;;5.63;2.22;;;10.00;97.90;;;;;;5015356;28;20133;-84
2021/05/18 05:25:48;;;;;;;6.72;2.45;;;10.20;97.90;;;;;;5014488;28;20068;-84
2021/05/18 05:28:14;;;;;;;16.42;3.65;;;10.30;97.90;;;;;;5031208;28;20025;-83
2021/05/18 05:30:39;;;;;;;5.40;2.03;;;10.40;98.10;;;;;;5016262;28;20025;-81
2021/05/18 05:33:05;;;;;;;7.15;2.05;;;10.50;98.10;;;;;;5031280;28;20532;-84
2021/05/18 05:35:31;;;;;;;11.13;2.45;;;10.60;98.10;;;;;;5015298;28;20081;-83
2021/05/18 05:37:57;;;;;;;6.47;2.13;;;10.80;98.00;;;;;;5014843;28;20051;-84
2021/05/18 05:40:23;;;;;;;4.35;1.63;;;10.90;97.80;;;;;;5031556;28;20029;-84
2021/05/18 05:42:49;;;;;;;4.75;2.10;;;11.00;97.60;;;;;;5048936;28;20060;-83
2021/05/18 05:45:15;;;;;;;4.00;2.10;;;11.10;97.60;;;;;;5030792;28;20033;-84
2021/05/18 05:47:41;;;;;;;7.28;2.00;;;11.10;97.50;;;;;;5014499;28;20028;-85
2021/05/18 05:50:08;;;;;;;3.75;1.48;;;11.20;97.50;;;;;;5030983;28;20029;-85
2021/05/18 05:52:34;;;;;;;7.65;2.33;;;11.20;97.50;;;;;;5030935;28;20029;-84
2021/05/18 05:55:01;;;;;;;5.13;1.60;;;11.20;97.40;;;;;;5014855;28;20040;-83
2021/05/18 05:57:27;;;;;;;4.85;1.90;;;11.30;97.20;;;;;;5031281;28;20391;-81
2021/05/18 05:59:52;;;;;;;4.13;1.63;;;11.40;97.10;;;;;;4997985;28;20146;-85
2021/05/18 06:02:18;;;;;;;5.30;1.77;;;11.40;97.10;;;;;;5013973;28;20033;-83
2021/05/18 06:04:44;;;;;;;3.50;2.00;;;11.50;97.10;;;;;;5030815;28;20514;-83
2021/05/18 06:07:09;;;;;;;6.72;2.10;;;11.60;97.20;;;;;;5030264;28;20391;-83
2021/05/18 06:09:36;;;;;;;7.85;1.73;;;11.70;97.20;;;;;;5013809;28;20040;-84
2021/05/18 06:47:45;;;;;;;10.75;1.60;;;14.20;93.10;;;;;;5036872;28;20040;-82
2021/05/18 06:49:58;;;;;;;4.85;1.60;;;14.10;93.00;;;;;;5031621;28;20373;-82
2021/05/18 06:52:24;;;;;;;3.80;1.85;;;14.00;93.00;;;;;;5034975;28;20034;-82
2021/05/18 06:54:50;;;;;;;7.25;1.70;;;14.00;93.20;;;;;;5034979;28;20475;-83
2021/05/18 06:57:15;;;;;;;4.50;1.80;;;14.10;93.30;;;;;;5034566;28;20390;-82
2021/05/18 07:02:26;;;;;;;6.32;1.85;;;14.30;92.40;;;;;;5037244;28;20048;-81
2021/05/18 07:04:54;;;;;;;6.70;1.92;;;14.10;92.10;;;;;;5017627;28;20052;-80
2021/05/18 07:07:22;;;;;;;6.82;2.28;;;13.90;92.40;;;;;;5033884;28;20075;-81
2021/05/18 07:09:48;;;;;;;7.35;1.85;;;14.00;93.50;;;;;;5017095;28;20029;-84
2021/05/18 07:12:13;;;;;;;9.38;1.80;;;15.30;95.30;;;;;;5016687;28;20028;-83
2021/05/18 07:14:39;;;;;;;4.63;1.23;;;17.40;93.80;;;;;;5051184;28;20028;-82
2021/05/18 07:17:05;;;;;;;7.68;1.90;;;18.70;90.30;;;;;;5016753;28;20086;-82
2021/05/18 07:19:30;;;;;;;7.97;2.67;;;18.70;83.70;;;;;;5033488;28;20033;-84
2021/05/18 07:21:56;;;;;;;16.15;2.53;;;18.20;81.10;;;;;;5017144;28;20052;-81
2021/05/18 07:24:27;;;;;;;6.25;1.55;;;17.70;80.70;;;;;;5051341;28;20032;-83
2021/05/18 07:26:53;;;;;;;8.40;1.58;;;17.10;81.70;;;;;;5017489;28;20467;-82
2021/05/18 07:29:19;;;;;;;10.27;2.13;;;16.80;83.20;;;;;;5016365;28;20035;-83
2021/05/18 07:31:45;;;;;;;5.68;1.70;;;16.60;83.90;;;;;;5016280;28;20457;-82
2021/05/18 07:34:11;;;;;;;5.53;1.80;;;16.50;84.00;;;;;;5050512;28;20032;-84
2021/05/18 07:36:37;;;;;;;5.85;1.48;;;16.30;84.40;;;;;;5015895;28;20025;-84
2021/05/18 07:39:03;;;;;;;5.57;1.60;;;16.30;85.20;;;;;;5016178;28;20037;-83
2021/05/18 07:41:29;;;;;;;10.48;1.30;;;16.90;89.00;;;;;;5032739;28;20426;-83
2021/05/18 07:43:55;;;;;;;5.60;2.13;;;18.70;88.80;;;;;;5016444;28;20086;-82
2021/05/18 07:46:23;;;;;;;17.42;2.80;;;19.80;82.90;;;;;;5015931;28;20134;-84
2021/05/18 08:07:18;;;;;;;7.90;2.15;;;17.90;78.70;;;;;;5032461;28;20116;-85
2021/05/18 08:09:49;;;;;;;8.32;1.52;;;18.30;78.30;;;;;;5031899;28;20025;-83
2021/05/18 08:12:15;;;;;;;5.05;1.20;;;18.60;77.00;;;;;;5015914;28;20059;-82
2021/05/18 08:14:49;;;;;;;5.22;1.27;;;18.70;75.70;;;;;;5049637;28;20058;-82
2021/05/18 08:17:19;;;;;;;9.05;1.35;;;19.50;77.40;;;;;;5049532;28;20044;-79
2021/05/18 08:20:13;;;;;;;8.00;1.23;;;21.60;77.50;;;;;;4999685;28;20059;-83
2021/05/18 10:38:33;;;;;;;4.03;0.80;;;26.30;46.20;;;;;;5049506;28;20029;-79
2021/05/18 10:41:11;;;;;;;3.83;0.80;;;26.70;44.80;;;;;;5048905;28;20144;-80
2021/05/18 10:43:38;;;;;;;4.93;1.02;;;27.10;45.20;;;;;;5033048;28;20475;-81
2021/05/18 10:46:07;;;;;;;4.30;1.00;;;28.00;44.80;;;;;;5049149;28;20036;-82
2021/05/18 10:48:35;;;;;;;2.75;1.23;;;28.00;43.20;;;;;;5012409;28;20030;-80
2021/05/18 10:51:26;;;;;;;2.65;0.88;;;28.30;43.70;;;;;;5030262;28;20083;-81
2021/05/18 10:54:14;;;;;;;3.72;0.82;;;29.20;43.50;;;;;;5024942;28;20429;-81
2021/05/18 10:57:02;;;;;;;4.97;0.80;;;30.60;42.80;;;;;;5030935;28;20021;-81
2021/05/18 10:59:30;;;;;;;4.53;0.70;;;31.50;41.70;;;;;;5021755;28;20091;-79
2021/05/18 11:02:09;;;;;;;8.82;0.98;;;30.90;40.80;;;;;;5048871;28;20029;-81
2021/05/18 11:04:38;;;;;;;4.10;1.00;;;30.40;41.00;;;;;;5030353;28;20029;-82
2021/05/18 11:07:05;;;;;;;11.63;1.58;;;30.10;41.00;;;;;;5031275;28;20112;-81
2021/05/18 11:09:32;;;;;;;2.97;1.27;;;29.60;40.70;;;;;;5031949;28;20025;-83
2021/05/18 11:12:09;;;;;;;3.40;0.93;;;28.80;40.50;;;;;;5031212;28;20028;-82
2021/05/18 11:14:42;;;;;;;13.52;1.50;;;28.00;41.60;;;;;;5014920;28;20074;-83
2021/05/18 11:17:34;;;;;;;3.00;0.70;;;27.80;42.50;;;;;;5048869;28;20025;-81
2021/05/18 11:20:12;;;;;;;2.60;0.70;;;28.50;42.20;;;;;;5032016;28;20503;-82
2021/05/18 11:26:06;;;;;;;3.65;1.08;;;27.70;40.60;;;;;;5031305;28;20041;-80
2021/05/18 11:28:33;;;;;;;4.15;0.80;;;27.10;40.90;;;;;;5046642;28;20097;-83
2021/05/18 11:31:16;;;;;;;2.50;0.80;;;26.90;41.40;;;;;;5034282;28;20039;-83
2021/05/18 11:33:49;;;;;;;3.45;1.08;;;26.40;41.20;;;;;;5051957;28;20516;-81
2021/05/18 11:36:18;;;;;;;8.65;1.05;;;26.00;41.90;;;;;;5015362;28;20116;-80
2021/05/18 11:39:02;;;;;;;2.15;0.50;;;25.90;42.20;;;;;;5014863;28;20071;-81
2021/05/18 11:41:36;;;;;;;3.83;0.85;;;25.50;42.10;;;;;;5014651;28;20080;-80
2021/05/18 11:44:02;;;;;;;4.53;1.27;;;25.00;41.90;;;;;;5015702;28;20063;-78
2021/05/18 11:46:30;;;;;;;2.28;0.70;;;24.60;42.60;;;;;;5015179;28;20029;-82
2021/05/18 11:49:05;;;;;;;3.30;1.05;;;24.30;42.60;;;;;;5016984;28;20398;-82
2021/05/18 11:51:54;;;;;;;6.20;1.13;;;23.90;42.60;;;;;;5014546;28;20075;-67
2021/05/18 11:54:26;;;;;;;5.97;1.00;;;23.30;44.00;;;;;;4998563;28;20026;-81
2021/05/18 11:56:53;;;;;;;2.58;0.80;;;22.60;44.60;;;;;;4998183;28;20421;-80
2021/05/18 11:59:21;;;;;;;1.27;0.70;;;21.80;45.40;;;;;;5018878;28;20056;-82
2021/05/18 12:01:54;;;;;;;8.32;0.70;;;21.20;46.50;;;;;;5035143;28;20385;-81
2021/05/18 12:04:23;;;;;;;9.90;1.67;;;20.40;47.60;;;;;;5034499;28;20036;-81
2021/05/18 12:07:10;;;;;;;4.57;1.08;;;19.80;49.50;;;;;;5035047;28;20064;-82
2021/05/18 12:09:38;;;;;;;4.70;0.88;;;19.00;51.20;;;;;;5033199;28;20017;-80
2021/05/18 12:12:10;;;;;;;2.50;0.80;;;18.00;52.30;;;;;;5049124;28;20035;-80
2021/05/18 12:14:49;;;;;;;1.35;0.70;;;17.30;54.60;;;;;;5019910;28;20263;-84
2021/05/18 12:17:38;;;;;;;2.42;0.50;;;16.80;56.30;;;;;;5036956;28;20021;-81
2021/05/18 12:20:13;;;;;;;3.22;0.50;;;16.30;57.80;;;;;;5034327;28;20025;-81
2021/05/18 12:22:43;;;;;;;1.70;0.70;;;16.00;58.20;;;;;;5033957;28;20031;-81
2021/05/18 12:25:10;;;;;;;3.28;1.10;;;15.90;59.90;;;;;;5052096;28;20108;-82
2021/05/18 12:27:46;;;;;;;3.47;1.60;;;16.00;60.00;;;;;;5016888;28;20389;-81
2021/05/18 12:30:12;;;;;;;2.25;1.20;;;16.30;61.10;;;;;;5017436;28;20032;-82
2021/05/18 12:32:47;;;;;;;2.33;0.90;;;16.50;60.70;;;;;;5034394;28;20092;-83
2021/05/18 12:35:19;;;;;;;1.45;0.88;;;16.70;60.70;;;;;;5034752;28;20029;-80
2021/05/18 12:37:48;;;;;;;1.77;0.60;;;16.90;60.50;;;;;;5054318;28;20059;-82
2021/05/18 12:40:30;;;;;;;2.30;0.40;;;16.90;60.00;;;;;;5036728;28;20032;-79
2021/05/18 12:43:07;;;;;;;1.60;0.70;;;16.80;60.80;;;;;;5053979;28;20048;-81
2021/05/18 12:45:33;;;;;;;0.93;0.60;;;16.70;61.10;;;;;;5018166;28;20033;-80
2021/05/18 12:48:00;;;;;;;5.10;0.95;;;16.80;61.50;;;;;;5019133;28;20021;-82
2021/05/18 12:50:43;;;;;;;0.98;0.40;;;17.30;63.10;;;;;;5034453;28;20066;-81
2021/05/18 12:53:30;;;;;;;1.80;0.63;;;18.60;62.60;;;;;;5051583;28;20025;-82
2021/05/18 12:55:57;;;;;;;5.07;1.85;;;19.90;60.60;;;;;;5051134;28;20020;-79
2021/05/18 12:58:34;;;;;;;1.92;0.60;;;20.50;58.90;;;;;;5033703;28;20056;-80
2021/05/18 13:01:08;;;;;;;1.98;0.60;;;21.10;58.10;;;;;;5032600;28;20021;-81
2021/05/18 13:03:35;;;;;;;1.38;0.40;;;22.10;57.00;;;;;;5050626;28;20467;-82
2021/05/18 13:06:01;;;;;;;3.42;0.73;;;23.00;56.50;;;;;;5032624;28;20618;-79
2021/05/18 13:08:39;;;;;;;0.88;0.43;;;23.90;55.30;;;;;;5016588;28;20063;-79
2021/05/18 13:13:36;;;;;;;1.75;0.65;;;24.90;52.70;;;;;;5050623;28;20055;-82
2021/05/18 13:16:09;;;;;;;2.80;0.55;;;25.10;51.60;;;;;;5032723;28;20029;-79
2021/05/18 13:18:38;;;;;;;2.80;0.60;;;25.10;50.00;;;;;;5016839;28;20082;-80
2021/05/18 13:21:04;;;;;;;1.42;0.40;;;24.90;50.80;;;;;;5052524;28;20033;-80
2021/05/18 13:28:45;;;;;;;3.00;0.60;;;23.60;49.80;;;;;;5036800;28;20032;-80
2021/05/18 13:31:11;;;;;;;2.85;0.60;;;23.10;49.80;;;;;;5015735;28;20128;-81
2021/05/18 13:33:37;;;;;;;4.53;0.50;;;22.50;49.50;;;;;;5051731;28;20088;-82
2021/05/18 13:36:03;;;;;;;6.05;0.40;;;22.00;49.60;;;;;;5016812;28;20740;-77
2021/05/18 13:38:33;;;;;;;0.57;0.30;;;21.60;50.20;;;;;;5032992;28;20029;-80
2021/05/18 13:40:59;;;;;;;3.08;2.05;;;21.10;50.20;;;;;;5016600;28;21583;-79
2021/05/18 13:43:25;;;;;;;1.75;0.65;;;20.80;50.90;;;;;;5015391;28;20040;-82
2021/05/18 13:45:50;;;;;;;3.17;0.90;;;20.40;51.30;;;;;;5049920;28;20041;-80
2021/05/18 13:48:16;;;;;;;2.47;0.60;;;20.20;51.80;;;;;;5014566;28;20075;-80
2021/05/18 13:50:41;;;;;;;0.98;0.50;;;20.10;51.90;;;;;;5032295;28;20055;-81
2021/05/18 13:53:07;;;;;;;0.35;0.32;;;20.00;51.80;;;;;;5016149;28;20340;-81
2021/05/18 13:55:34;;;;;;;6.95;0.68;;;19.90;50.80;;;;;;5017737;28;20141;-81
2021/05/18 13:58:01;;;;;;;6.88;0.60;;;19.60;50.80;;;;;;5039395;28;20025;-79
2021/05/18 14:00:27;;;;;;;1.88;0.90;;;19.40;51.00;;;;;;5017248;28;20041;-78
2021/05/18 14:02:53;;;;;;;2.78;0.57;;;19.10;51.00;;;;;;5050229;28;20533;-80
2021/05/18 14:05:21;;;;;;;1.38;0.30;;;19.00;51.80;;;;;;5015945;28;20033;-79
2021/05/18 14:08:33;;;;;;;0.43;0.20;;;18.80;52.10;;;;;;5049497;28;20024;-80
2021/05/18 14:11:11;;;;;;;3.17;0.40;;;18.60;51.70;;;;;;5049997;28;20024;-80
2021/05/18 14:13:43;;;;;;;1.77;0.50;;;18.40;51.70;;;;;;5032947;28;20032;-81
2021/05/18 14:16:16;;;;;;;0.47;0.20;;;18.30;52.10;;;;;;5031769;28;20090;-80
2021/05/18 14:18:44;;;;;;;3.03;0.60;;;18.10;52.80;;;;;;5031862;28;20060;-81
2021/05/18 14:21:10;;;;;;;0.80;0.22;;;18.10;53.40;;;;;;5049136;28;20032;-81
2021/05/18 14:23:47;;;;;;;2.85;0.57;;;18.00;52.90;;;;;;5015156;28;20049;-81
2021/05/18 14:26:13;;;;;;;1.92;0.35;;;18.00;53.00;;;;;;5015765;28;20040;-80
2021/05/18 14:28:40;;;;;;;3.47;0.50;;;18.10;53.20;;;;;;5015458;28;20033;-81
2021/05/18 14:31:08;;;;;;;3.78;0.60;;;18.20;53.50;;;;;;5031850;28;20035;-81
2021/05/18 14:33:39;;;;;;;1.30;0.55;;;18.30;53.30;;;;;;5032228;28;20032;-82
2021/05/18 14:36:06;;;;;;;1.35;0.45;;;18.20;52.90;;;;;;5050010;28;20077;-80
2021/05/18 14:38:32;;;;;;;1.67;0.60;;;18.10;53.00;;;;;;5015540;28;20036;-81
2021/05/18 14:56:36;;;;;;;5.30;0.77;;;19.20;52.20;;;;;;5030262;28;20390;-78
2021/05/18 14:59:05;;;;;;;4.28;0.70;;;19.30;52.30;;;;;;5015440;28;20029;-77
2021/05/18 15:01:31;;;;;;;3.20;0.60;;;19.30;52.80;;;;;;5016983;28;20076;-80
2021/05/18 15:03:57;;;;;;;2.78;0.90;;;19.40;53.20;;;;;;5019307;28;20057;-80
2021/05/18 15:06:22;;;;;;;2.00;0.93;;;19.30;54.40;;;;;;5036602;28;20025;-77
2021/05/18 15:08:48;;;;;;;4.32;0.70;;;19.00;56.00;;;;;;5036331;28;20016;-84
2021/05/18 15:11:14;;;;;;;3.95;0.90;;;18.80;56.30;;;;;;5003700;28;20044;-79
2021/05/18 15:13:39;;;;;;;4.50;1.48;;;18.60;56.80;;;;;;5022611;28;20387;-78
2021/05/18 15:16:05;;;;;;;5.35;1.00;;;18.50;58.10;;;;;;5056158;28;20119;-80
2021/05/18 15:18:33;;;;;;;5.80;1.23;;;18.40;59.10;;;;;;5033122;28;20044;-80
2021/05/18 15:20:59;;;;;;;3.22;1.02;;;18.10;60.70;;;;;;5056658;28;20387;-81
2021/05/18 15:23:27;;;;;;;4.15;0.70;;;17.70;61.80;;;;;;5021262;28;20075;-79
2021/05/18 15:25:56;;;;;;;2.65;1.10;;;17.50;63.10;;;;;;5021618;28;20142;-80
2021/05/18 15:28:22;;;;;;;6.43;0.95;;;17.40;63.90;;;;;;5023233;28;20025;-80
2021/05/18 15:30:55;;;;;;;4.20;0.90;;;17.30;64.00;;;;;;5039091;28;20149;-79
2021/05/18 15:33:21;;;;;;;3.72;1.02;;;17.20;64.40;;;;;;5038698;28;20556;-79
2021/05/18 15:35:47;;;;;;;2.65;0.85;;;17.00;64.50;;;;;;5022278;28;20033;-81
2021/05/18 15:38:13;;;;;;;4.93;0.90;;;16.90;64.80;;;;;;5038959;28;20507;-80
2021/05/18 15:40:39;;;;;;;5.32;1.20;;;16.90;65.30;;;;;;5023149;28;20479;-81
2021/05/18 15:43:04;;;;;;;3.92;1.15;;;17.00;66.10;;;;;;5039458;28;20037;-80
2021/05/18 15:45:30;;;;;;;2.63;1.00;;;17.30;66.70;;;;;;5037198;28;20025;-81
2021/05/18 15:47:56;;;;;;;3.40;1.17;;;17.60;66.10;;;;;;5022215;28;20364;-80
2021/05/18 15:50:21;;;;;;;1.90;0.90;;;17.80;65.60;;;;;;5020756;28;20447;-81
2021/05/18 15:52:47;;;;;;;2.45;1.20;;;17.90;64.90;;;;;;5022529;28;20083;-81
2021/05/18 15:55:13;;;;;;;1.90;0.82;;;18.00;64.20;;;;;;5022140;28;20031;-81
2021/05/18 15:57:39;;;;;;;2.08;1.13;;;18.00;63.60;;;;;;5035647;28;20033;-79
2021/05/18 16:00:06;;;;;;;9.18;1.38;;;18.00;63.60;;;;;;5052524;28;20029;-79
2021/05/18 16:02:32;;;;;;;4.78;1.40;;;17.90;63.70;;;;;;5052436;28;20029;-80
2021/05/18 16:04:58;;;;;;;5.30;1.10;;;17.80;63.60;;;;;;5034741;28;20044;-78
2021/05/18 16:07:25;;;;;;;5.38;1.17;;;17.70;63.60;;;;;;5036379;28;20082;-80
2021/05/18 16:09:51;;;;;;;1.95;0.82;;;17.40;63.30;;;;;;5034967;28;20016;-79
2021/05/18 16:12:17;;;;;;;2.90;0.60;;;17.10;63.60;;;;;;5034566;28;20415;-79
2021/05/18 16:14:44;;;;;;;3.15;1.15;;;16.90;64.00;;;;;;5034747;28;20029;-82
2021/05/18 16:17:10;;;;;;;2.10;0.73;;;16.80;64.00;;;;;;5035145;28;20447;-81
2021/05/18 16:19:36;;;;;;;1.90;0.55;;;16.70;64.30;;;;;;5035293;28;20071;-80
2021/05/18 16:22:03;;;;;;;2.30;0.73;;;16.70;64.40;;;;;;5034560;28;20025;-81
2021/05/18 16:24:32;;;;;;;4.20;0.93;;;16.80;64.20;;;;;;5013656;28;20033;-78
2021/05/18 16:26:57;;;;;;;2.13;0.83;;;16.80;64.10;;;;;;5047341;28;20071;-79
2021/05/18 16:29:24;;;;;;;4.32;0.80;;;16.90;64.20;;;;;;5033675;28;20259;-77
2021/05/18 16:31:50;;;;;;;2.15;0.75;;;16.90;63.70;;;;;;5034090;28;20021;-80
2021/05/18 16:34:16;;;;;;;2.85;0.60;;;16.80;63.30;;;;;;5017730;28;20098;-79
2021/05/18 16:36:42;;;;;;;2.53;1.52;;;16.60;63.20;;;;;;5017123;28;20475;-78
2021/05/18 16:39:09;;;;;;;2.58;0.93;;;16.50;63.60;;;;;;5016887;28;20033;-80
2021/05/18 16:41:37;;;;;;;2.90;1.40;;;16.40;63.80;;;;;;5050903;28;20080;-79
2021/05/18 16:44:04;;;;;;;4.13;1.73;;;16.30;64.50;;;;;;5017112;28;20478;-79
2021/05/18 16:46:30;;;;;;;7.95;3.08;;;16.30;64.60;;;;;;5052279;28;20040;-82
2021/05/18 16:48:56;;;;;;;8.27;2.70;;;16.30;64.80;;;;;;5017797;28;20124;-80
2021/05/18 16:51:21;;;;;;;4.75;1.13;;;16.40;65.60;;;;;;5033996;28;20021;-78
2021/05/18 16:53:52;;;;;;;2.45;0.90;;;16.50;65.90;;;;;;5018016;28;20083;-79
2021/05/18 16:56:18;;;;;;;3.55;0.90;;;16.50;66.00;;;;;;5034823;28;20037;-79
2021/05/18 16:58:43;;;;;;;2.13;0.98;;;16.60;66.30;;;;;;5017056;28;20120;-78
2021/05/18 17:01:09;;;;;;;3.95;0.98;;;16.70;66.10;;;;;;5016803;28;20029;-79
2021/05/18 17:03:35;;;;;;;7.85;1.33;;;16.90;66.30;;;;;;5033499;28;20395;-77
2021/05/18 17:06:02;;;;;;;3.35;1.25;;;16.90;66.10;;;;;;5017310;28;20415;-78
2021/05/18 17:08:28;;;;;;;3.75;1.20;;;16.80;66.10;;;;;;5000281;28;20033;-78
2021/05/18 17:10:55;;;;;;;6.70;1.20;;;16.70;66.60;;;;;;5051029;28;20114;-78
2021/05/18 17:13:21;;;;;;;4.32;1.20;;;16.60;67.30;;;;;;5017370;28;20452;-79
2021/05/18 17:15:47;;;;;;;5.47;1.52;;;16.50;67.60;;;;;;5017916;28;20069;-80
2021/05/18 17:18:12;;;;;;;4.05;1.00;;;16.50;67.80;;;;;;5001285;28;20395;-78
2021/05/18 17:20:38;;;;;;;2.08;0.90;;;16.50;67.70;;;;;;5051839;28;20088;-78
2021/05/18 17:23:05;;;;;;;4.38;0.95;;;16.40;67.10;;;;;;5051153;28;20535;-80
2021/05/18 17:25:31;;;;;;;3.72;1.00;;;16.20;67.30;;;;;;5032250;28;20029;-79
2021/05/18 17:27:57;;;;;;;3.22;1.08;;;16.10;67.80;;;;;;5032498;28;20112;-80
2021/05/18 17:30:26;;;;;;;2.05;0.80;;;16.00;68.10;;;;;;5015318;28;20040;-78
2021/05/18 17:32:53;;;;;;;3.58;0.73;;;15.90;67.50;;;;;;5031929;28;20083;-79
2021/05/18 17:35:19;;;;;;;2.97;0.90;;;15.70;67.40;;;;;;5033425;28;20128;-80
2021/05/18 17:37:45;;;;;;;3.53;1.40;;;15.50;67.40;;;;;;5032246;28;20021;-73
2021/05/18 17:40:12;;;;;;;3.25;0.80;;;15.40;67.70;;;;;;5051040;28;20025;-80
2021/05/18 17:42:39;;;;;;;2.47;0.98;;;15.20;67.70;;;;;;5033146;28;20460;-78
2021/05/18 17:45:07;;;;;;;2.45;1.00;;;15.20;68.20;;;;;;5034481;28;20029;-79
2021/05/18 17:47:34;;;;;;;3.30;1.55;;;15.10;68.00;;;;;;5032852;28;20040;-78
2021/05/18 17:49:59;;;;;;;1.17;0.70;;;15.20;68.10;;;;;;5050205;28;20040;-79
2021/05/18 17:52:26;;;;;;;1.40;0.80;;;15.30;68.10;;;;;;5018160;28;20044;-80
2021/05/18 17:54:53;;;;;;;3.47;1.75;;;15.40;68.10;;;;;;5032233;28;20060;-80
2021/05/18 17:57:19;;;;;;;7.97;1.65;;;15.60;68.40;;;;;;5031984;28;20468;-79
2021/05/18 17:59:44;;;;;;;6.10;1.10;;;15.90;68.40;;;;;;5031839;28;20163;-79
2021/05/18 18:02:11;;;;;;;4.88;0.95;;;16.00;67.70;;;;;;4999130;28;20170;-81
2021/05/18 18:04:37;;;;;;;3.35;0.88;;;16.10;67.60;;;;;;5032479;28;20033;-81
2021/05/18 18:07:06;;;;;;;3.30;1.05;;;16.20;67.60;;;;;;5033940;28;20111;-79
2021/05/18 18:09:38;;;;;;;7.35;0.65;;;16.30;67.40;;;;;;5034857;28;20074;-79
2021/05/18 18:12:05;;;;;;;1.13;0.40;;;16.50;66.90;;;;;;5017073;28;20068;-81
2021/05/18 18:14:30;;;;;;;4.22;1.15;;;16.50;66.60;;;;;;5016341;28;20045;-81
2021/05/18 18:16:58;;;;;;;2.65;0.60;;;16.50;66.50;;;;;;5016307;28;20102;-80